sensor_id;sensor_type;location;lat;lon;timestamp;pressure;altitude;pressure_sealevel;temperature;humidity
82784;BME280;72520;55.762;37.780;2023-11-18T00:01:43;100827.94;;;-4.17;66.76
82784;BME280;72520;55.762;37.780;2023-11-18T00:04:46;100838.28;;;-4.20;66.79
82784;BME280;72520;55.762;37.780;2023-11-18T00:07:48;100829.66;;;-4.17;66.26
82784;BME280;72520;55.762;37.780;2023-11-18T00:10:51;100838.28;;;-4.18;66.99
82784;BME280;72520;55.762;37.780;2023-11-18T00:13:56;100840.91;;;-4.17;66.92
82784;BME280;72520;55.762;37.780;2023-11-18T00:17:00;100835.69;;;-4.20;65.77
82784;BME280;72520;55.762;37.780;2023-11-18T00:20:03;100842.59;;;-4.22;66.23
82784;BME280;72520;55.762;37.780;2023-11-18T00:23:10;100843.47;;;-4.18;66.54
82784;BME280;72520;55.762;37.780;2023-11-18T00:26:12;100852.16;;;-4.18;66.97
82784;BME280;72520;55.762;37.780;2023-11-18T00:29:15;100848.63;;;-4.24;66.40
82784;BME280;72520;55.762;37.780;2023-11-18T00:32:19;100857.28;;;-4.24;66.62
82784;BME280;72520;55.762;37.780;2023-11-18T00:35:21;100859.03;;;-4.26;66.53
82784;BME280;72520;55.762;37.780;2023-11-18T00:38:24;100858.09;;;-4.31;67.32
82784;BME280;72520;55.762;37.780;2023-11-18T00:41:27;100862.31;;;-4.40;66.16
82784;BME280;72520;55.762;37.780;2023-11-18T00:44:29;100864.78;;;-4.51;66.42
82784;BME280;72520;55.762;37.780;2023-11-18T00:47:33;100862.06;;;-4.58;67.27
82784;BME280;72520;55.762;37.780;2023-11-18T00:50:36;100864.59;;;-4.66;66.44
82784;BME280;72520;55.762;37.780;2023-11-18T00:53:39;100868.13;;;-4.61;66.47
82784;BME280;72520;55.762;37.780;2023-11-18T00:56:41;100855.16;;;-4.59;66.74
82784;BME280;72520;55.762;37.780;2023-11-18T00:59:44;100860.31;;;-4.61;66.57
82784;BME280;72520;55.762;37.780;2023-11-18T01:02:48;100859.31;;;-4.72;67.52
82784;BME280;72520;55.762;37.780;2023-11-18T01:05:50;100867.00;;;-4.81;67.44
82784;BME280;72520;55.762;37.780;2023-11-18T01:08:54;100869.63;;;-4.78;67.87
82784;BME280;72520;55.762;37.780;2023-11-18T01:11:56;100869.59;;;-4.81;67.71
82784;BME280;72520;55.762;37.780;2023-11-18T01:14:59;100870.44;;;-4.84;67.39
82784;BME280;72520;55.762;37.780;2023-11-18T01:18:03;100877.25;;;-4.89;67.70
82784;BME280;72520;55.762;37.780;2023-11-18T01:21:07;100875.44;;;-4.96;67.55
82784;BME280;72520;55.762;37.780;2023-11-18T01:24:10;100877.16;;;-4.96;68.27
82784;BME280;72520;55.762;37.780;2023-11-18T01:27:13;100877.94;;;-5.02;68.57
82784;BME280;72520;55.762;37.780;2023-11-18T01:30:16;100885.69;;;-5.03;68.00
82784;BME280;72520;55.762;37.780;2023-11-18T01:33:19;100876.09;;;-5.10;68.51
82784;BME280;72520;55.762;37.780;2023-11-18T01:36:22;100879.50;;;-5.13;67.97
82784;BME280;72520;55.762;37.780;2023-11-18T01:39:25;100884.66;;;-5.18;68.10
82784;BME280;72520;55.762;37.780;2023-11-18T01:42:29;100889.78;;;-5.21;69.02
82784;BME280;72520;55.762;37.780;2023-11-18T01:45:32;100888.88;;;-5.24;68.78
82784;BME280;72520;55.762;37.780;2023-11-18T01:48:37;100888.78;;;-5.29;69.55
82784;BME280;72520;55.762;37.780;2023-11-18T01:51:41;100880.09;;;-5.32;68.68
82784;BME280;72520;55.762;37.780;2023-11-18T01:54:44;100881.00;;;-5.29;68.67
82784;BME280;72520;55.762;37.780;2023-11-18T01:57:47;100881.88;;;-5.28;68.70
82784;BME280;72520;55.762;37.780;2023-11-18T02:00:52;100879.28;;;-5.27;69.06
82784;BME280;72520;55.762;37.780;2023-11-18T02:03:56;100878.50;;;-5.24;68.65
82784;BME280;72520;55.762;37.780;2023-11-18T02:07:00;100884.53;;;-5.24;68.88
82784;BME280;72520;55.762;37.780;2023-11-18T02:10:06;100877.66;;;-5.22;68.30
82784;BME280;72520;55.762;37.780;2023-11-18T02:13:15;100885.56;;;-5.13;68.07
82784;BME280;72520;55.762;37.780;2023-11-18T02:16:20;100889.00;;;-5.14;68.41
82784;BME280;72520;55.762;37.780;2023-11-18T02:19:29;100891.50;;;-5.20;68.26
82784;BME280;72520;55.762;37.780;2023-11-18T02:22:32;100888.88;;;-5.24;68.14
82784;BME280;72520;55.762;37.780;2023-11-18T02:25:43;100880.97;;;-5.32;68.25
82784;BME280;72520;55.762;37.780;2023-11-18T02:28:47;100880.88;;;-5.38;68.12
82784;BME280;72520;55.762;37.780;2023-11-18T02:31:53;100886.06;;;-5.36;68.82
82784;BME280;72520;55.762;37.780;2023-11-18T02:35:02;100880.94;;;-5.33;68.46
82784;BME280;72520;55.762;37.780;2023-11-18T02:38:11;100885.22;;;-5.35;69.33
82784;BME280;72520;55.762;37.780;2023-11-18T02:41:17;100889.63;;;-5.30;68.16
82784;BME280;72520;55.762;37.780;2023-11-18T02:44:22;100889.63;;;-5.30;68.22
82784;BME280;72520;55.762;37.780;2023-11-18T02:47:27;100893.84;;;-5.38;69.08
82784;BME280;72520;55.762;37.780;2023-11-18T02:50:30;100891.88;;;-5.52;68.58
82784;BME280;72520;55.762;37.780;2023-11-18T02:53:32;100890.91;;;-5.57;68.93
82784;BME280;72520;55.762;37.780;2023-11-18T02:56:36;100886.69;;;-5.52;68.57
82784;BME280;72520;55.762;37.780;2023-11-18T02:59:39;100892.84;;;-5.46;68.56
82784;BME280;72520;55.762;37.780;2023-11-18T03:02:42;100889.41;;;-5.45;68.69
82784;BME280;72520;55.762;37.780;2023-11-18T03:05:44;100896.25;;;-5.47;68.67
82784;BME280;72520;55.762;37.780;2023-11-18T03:08:51;100893.66;;;-5.48;69.17
82784;BME280;72520;55.762;37.780;2023-11-18T03:11:58;100894.47;;;-5.51;69.07
82784;BME280;72520;55.762;37.780;2023-11-18T03:15:00;100897.69;;;-2.51;65.80
82784;BME280;72520;55.762;37.780;2023-11-18T03:18:05;100900.47;;;-3.52;63.14
82784;BME280;72520;55.762;37.780;2023-11-18T03:21:11;100905.88;;;-4.20;64.22
82784;BME280;72520;55.762;37.780;2023-11-18T03:24:14;100898.38;;;-4.66;64.82
82784;BME280;72520;55.762;37.780;2023-11-18T03:27:19;100900.59;;;-4.93;66.26
82784;BME280;72520;55.762;37.780;2023-11-18T03:30:24;100909.81;;;-5.12;67.21
82784;BME280;72520;55.762;37.780;2023-11-18T03:33:26;100907.03;;;-5.24;67.21
82784;BME280;72520;55.762;37.780;2023-11-18T03:36:29;100906.81;;;-5.36;67.97
82784;BME280;72520;55.762;37.780;2023-11-18T03:39:31;100908.44;;;-5.43;67.92
82784;BME280;72520;55.762;37.780;2023-11-18T03:42:35;100908.34;;;-5.49;68.26
82784;BME280;72520;55.762;37.780;2023-11-18T03:45:38;100903.91;;;-5.54;68.29
82784;BME280;72520;55.762;37.780;2023-11-18T03:48:41;100917.66;;;-5.61;68.62
82784;BME280;72520;55.762;37.780;2023-11-18T03:51:45;100909.69;;;-5.71;68.79
82784;BME280;72520;55.762;37.780;2023-11-18T03:54:48;100925.25;;;-5.71;68.42
82784;BME280;72520;55.762;37.780;2023-11-18T03:57:52;100919.13;;;-5.76;68.80
82784;BME280;72520;55.762;37.780;2023-11-18T04:00:55;100924.31;;;-5.74;68.53
82784;BME280;72520;55.762;37.780;2023-11-18T04:03:58;100919.13;;;-5.76;68.94
82784;BME280;72520;55.762;37.780;2023-11-18T04:07:01;100918.16;;;-5.81;68.69
82784;BME280;72520;55.762;37.780;2023-11-18T04:10:04;100915.50;;;-5.85;68.88
82784;BME280;72520;55.762;37.780;2023-11-18T04:13:09;100921.63;;;-5.80;68.77
82784;BME280;72520;55.762;37.780;2023-11-18T04:16:12;100919.91;;;-5.80;68.68
82784;BME280;72520;55.762;37.780;2023-11-18T04:19:15;100923.31;;;-5.82;68.66
82784;BME280;72520;55.762;37.780;2023-11-18T04:22:18;100923.28;;;-5.85;68.49
82784;BME280;72520;55.762;37.780;2023-11-18T04:25:20;100924.94;;;-5.90;68.86
82784;BME280;72520;55.762;37.780;2023-11-18T04:28:24;100927.47;;;-5.93;69.06
82784;BME280;72520;55.762;37.780;2023-11-18T04:31:28;100926.56;;;-5.95;69.19
82784;BME280;72520;55.762;37.780;2023-11-18T04:34:30;100930.00;;;-5.96;68.91
82784;BME280;72520;55.762;37.780;2023-11-18T04:37:34;100923.13;;;-5.94;69.27
82784;BME280;72520;55.762;37.780;2023-11-18T04:40:37;100922.28;;;-5.92;69.38
82784;BME280;72520;55.762;37.780;2023-11-18T04:43:43;100924.09;;;-5.89;69.37
82784;BME280;72520;55.762;37.780;2023-11-18T04:46:47;100926.69;;;-5.89;69.39
82784;BME280;72520;55.762;37.780;2023-11-18T04:49:49;100925.81;;;-5.88;69.29
82784;BME280;72520;55.762;37.780;2023-11-18T04:52:52;100933.69;;;-5.82;68.92
82784;BME280;72520;55.762;37.780;2023-11-18T04:55:54;100921.66;;;-5.77;68.66
82784;BME280;72520;55.762;37.780;2023-11-18T04:58:59;100921.72;;;-5.74;69.05
82784;BME280;72520;55.762;37.780;2023-11-18T05:02:01;100924.31;;;-5.74;68.75
82784;BME280;72520;55.762;37.780;2023-11-18T05:05:04;100920.84;;;-5.75;69.29
82784;BME280;72520;55.762;37.780;2023-11-18T05:08:16;100923.44;;;-5.76;68.20
82784;BME280;72520;55.762;37.780;2023-11-18T05:11:19;100924.41;;;-5.70;68.57
82784;BME280;72520;55.762;37.780;2023-11-18T05:14:23;100926.16;;;-5.67;68.30
82784;BME280;72520;55.762;37.780;2023-11-18T05:17:28;100918.50;;;-5.62;68.22
82784;BME280;72520;55.762;37.780;2023-11-18T05:20:31;100929.75;;;-5.60;68.25
82784;BME280;72520;55.762;37.780;2023-11-18T05:23:34;100931.34;;;-5.67;68.41
82784;BME280;72520;55.762;37.780;2023-11-18T05:26:37;100936.44;;;-5.73;68.26
82784;BME280;72520;55.762;37.780;2023-11-18T05:29:42;100939.09;;;-5.70;68.60
82784;BME280;72520;55.762;37.780;2023-11-18T05:32:46;100944.25;;;-5.72;69.10
82784;BME280;72520;55.762;37.780;2023-11-18T05:35:49;100940.75;;;-5.75;68.64
82784;BME280;72520;55.762;37.780;2023-11-18T05:38:51;100940.69;;;-5.77;69.26
82784;BME280;72520;55.762;37.780;2023-11-18T05:41:55;100939.00;;;-5.75;68.74
82784;BME280;72520;55.762;37.780;2023-11-18T05:45:00;100939.91;;;-5.73;69.00
82784;BME280;72520;55.762;37.780;2023-11-18T05:48:05;100941.66;;;-5.72;68.54
82784;BME280;72520;55.762;37.780;2023-11-18T05:51:08;100938.34;;;-5.63;68.33
82784;BME280;72520;55.762;37.780;2023-11-18T05:54:11;100944.47;;;-5.59;68.93
82784;BME280;72520;55.762;37.780;2023-11-18T05:57:15;100954.00;;;-5.57;69.30
82784;BME280;72520;55.762;37.780;2023-11-18T06:00:19;100950.63;;;-5.53;68.77
82784;BME280;72520;55.762;37.780;2023-11-18T06:03:24;100952.34;;;-5.55;68.67
82784;BME280;72520;55.762;37.780;2023-11-18T06:06:27;100954.09;;;-5.51;68.94
82784;BME280;72520;55.762;37.780;2023-11-18T06:09:30;100955.81;;;-5.53;68.77
82784;BME280;72520;55.762;37.780;2023-11-18T06:12:32;100964.47;;;-5.51;69.20
82784;BME280;72520;55.762;37.780;2023-11-18T06:15:36;100953.31;;;-5.48;68.90
82784;BME280;72520;55.762;37.780;2023-11-18T06:18:40;100954.38;;;-5.36;69.05
82784;BME280;72520;55.762;37.780;2023-11-18T06:21:46;100957.03;;;-5.33;68.79
82784;BME280;72520;55.762;37.780;2023-11-18T06:24:49;100958.00;;;-5.26;68.66
82784;BME280;72520;55.762;37.780;2023-11-18T06:27:53;100956.25;;;-5.27;68.47
82784;BME280;72520;55.762;37.780;2023-11-18T06:30:57;100958.06;;;-5.23;68.45
82784;BME280;72520;55.762;37.780;2023-11-18T06:33:59;100952.09;;;-5.18;68.16
82784;BME280;72520;55.762;37.780;2023-11-18T06:37:03;100954.88;;;-5.07;68.47
82784;BME280;72520;55.762;37.780;2023-11-18T06:40:07;100962.63;;;-5.08;67.79
82784;BME280;72520;55.762;37.780;2023-11-18T06:43:17;100965.34;;;-5.01;67.61
82784;BME280;72520;55.762;37.780;2023-11-18T06:46:22;100959.41;;;-4.94;67.66
82784;BME280;72520;55.762;37.780;2023-11-18T06:49:25;100973.25;;;-4.92;67.52
82784;BME280;72520;55.762;37.780;2023-11-18T06:52:30;100969.97;;;-4.83;67.45
82784;BME280;72520;55.762;37.780;2023-11-18T06:55:33;100976.09;;;-4.77;67.10
82784;BME280;72520;55.762;37.780;2023-11-18T06:58:37;100977.06;;;-4.70;67.73
82784;BME280;72520;55.762;37.780;2023-11-18T07:01:42;100981.50;;;-4.63;67.20
82784;BME280;72520;55.762;37.780;2023-11-18T07:04:45;100976.50;;;-4.48;67.29
82784;BME280;72520;55.762;37.780;2023-11-18T07:07:48;100975.69;;;-4.44;67.13
82784;BME280;72520;55.762;37.780;2023-11-18T07:10:50;100975.78;;;-4.39;67.91
82784;BME280;72520;55.762;37.780;2023-11-18T07:13:53;100973.25;;;-4.33;68.12
82784;BME280;72520;55.762;37.780;2023-11-18T07:17:00;100975.81;;;-4.35;67.24
82784;BME280;72520;55.762;37.780;2023-11-18T07:20:03;100976.06;;;-4.17;66.33
82784;BME280;72520;55.762;37.780;2023-11-18T07:23:07;100970.91;;;-4.14;65.93
82784;BME280;72520;55.762;37.780;2023-11-18T07:26:10;100964.72;;;-4.23;66.22
82784;BME280;72520;55.762;37.780;2023-11-18T07:29:15;100976.69;;;-4.36;66.60
82784;BME280;72520;55.762;37.780;2023-11-18T07:32:20;100968.78;;;-4.42;67.64
82784;BME280;72520;55.762;37.780;2023-11-18T07:35:23;100965.41;;;-4.36;67.58
82784;BME280;72520;55.762;37.780;2023-11-18T07:38:25;100969.72;;;-4.38;67.13
82784;BME280;72520;55.762;37.780;2023-11-18T07:41:30;100973.25;;;-4.33;67.32
82784;BME280;72520;55.762;37.780;2023-11-18T07:44:32;100973.19;;;-4.38;67.09
82784;BME280;72520;55.762;37.780;2023-11-18T07:47:36;100978.53;;;-4.27;67.10
82784;BME280;72520;55.762;37.780;2023-11-18T07:50:40;100982.00;;;-4.25;67.46
82784;BME280;72520;55.762;37.780;2023-11-18T07:53:43;100983.91;;;-4.15;65.91
82784;BME280;72520;55.762;37.780;2023-11-18T07:56:46;100981.22;;;-4.20;66.34
82784;BME280;72520;55.762;37.780;2023-11-18T07:59:49;100978.66;;;-4.17;66.23
82784;BME280;72520;55.762;37.780;2023-11-18T08:02:54;100981.38;;;-4.09;66.14
82784;BME280;72520;55.762;37.780;2023-11-18T08:05:56;100986.66;;;-4.00;66.34
82784;BME280;72520;55.762;37.780;2023-11-18T08:09:03;100990.25;;;-3.90;66.66
82784;BME280;72520;55.762;37.780;2023-11-18T08:12:06;100981.78;;;-3.73;66.59
82784;BME280;72520;55.762;37.780;2023-11-18T08:15:10;100986.38;;;-3.49;65.58
82784;BME280;72520;55.762;37.780;2023-11-18T08:18:14;100981.25;;;-3.41;65.84
82784;BME280;72520;55.762;37.780;2023-11-18T08:21:17;100979.53;;;-3.41;65.41
82784;BME280;72520;55.762;37.780;2023-11-18T08:24:20;100974.44;;;-3.27;64.93
82784;BME280;72520;55.762;37.780;2023-11-18T08:27:23;100969.28;;;-3.20;65.36
82784;BME280;72520;55.762;37.780;2023-11-18T08:30:26;100972.66;;;-3.30;63.46
82784;BME280;72520;55.762;37.780;2023-11-18T08:33:30;100971.84;;;-3.27;65.21
82784;BME280;72520;55.762;37.780;2023-11-18T08:36:33;100970.19;;;-3.18;65.17
82784;BME280;72520;55.762;37.780;2023-11-18T08:39:36;100968.41;;;-3.22;63.31
82784;BME280;72520;55.762;37.780;2023-11-18T08:42:39;100959.72;;;-3.27;63.78
82784;BME280;72520;55.762;37.780;2023-11-18T08:45:42;100966.59;;;-3.29;64.54
82784;BME280;72520;55.762;37.780;2023-11-18T08:48:48;100963.50;;;-2.82;61.62
82784;BME280;72520;55.762;37.780;2023-11-18T08:51:52;100952.16;;;-2.93;61.92
82784;BME280;72520;55.762;37.780;2023-11-18T08:54:57;100955.72;;;-2.78;61.96
82784;BME280;72520;55.762;37.780;2023-11-18T08:58:18;100965.34;;;-2.72;62.10
82784;BME280;72520;55.762;37.780;2023-11-18T09:01:23;100961.78;;;-2.83;62.05
82784;BME280;72520;55.762;37.780;2023-11-18T09:04:33;100960.06;;;-2.83;61.60
82784;BME280;72520;55.762;37.780;2023-11-18T09:07:37;100959.31;;;-2.61;61.16
82784;BME280;72520;55.762;37.780;2023-11-18T09:10:39;100964.59;;;-2.50;60.41
82784;BME280;72520;55.762;37.780;2023-11-18T09:13:42;100974.03;;;-2.67;61.10
82784;BME280;72520;55.762;37.780;2023-11-18T09:16:46;100959.38;;;-2.53;60.42
82784;BME280;72520;55.762;37.780;2023-11-18T09:19:49;100959.50;;;-2.27;58.45
82784;BME280;72520;55.762;37.780;2023-11-18T09:22:54;100961.19;;;-2.37;58.99
82784;BME280;72520;55.762;37.780;2023-11-18T09:25:58;100959.34;;;-2.51;59.52
82784;BME280;72520;55.762;37.780;2023-11-18T09:29:01;100965.44;;;-2.51;60.05
82784;BME280;72520;55.762;37.780;2023-11-18T09:32:04;100959.34;;;-2.59;60.57
82784;BME280;72520;55.762;37.780;2023-11-18T09:35:12;100961.03;;;-2.61;60.54
82784;BME280;72520;55.762;37.780;2023-11-18T09:38:14;100958.41;;;-2.70;59.13
82784;BME280;72520;55.762;37.780;2023-11-18T09:41:17;100957.66;;;-2.48;60.96
82784;BME280;72520;55.762;37.780;2023-11-18T09:44:20;100958.59;;;-2.35;59.29
82784;BME280;72520;55.762;37.780;2023-11-18T09:47:25;100954.34;;;-2.15;58.02
82784;BME280;72520;55.762;37.780;2023-11-18T09:50:32;100954.34;;;-2.17;59.06
82784;BME280;72520;55.762;37.780;2023-11-18T09:53:40;100954.41;;;-2.04;59.35
82784;BME280;72520;55.762;37.780;2023-11-18T09:56:51;100950.00;;;-2.15;57.99
82784;BME280;72520;55.762;37.780;2023-11-18T10:00:01;100949.13;;;-2.14;57.88
82784;BME280;72520;55.762;37.780;2023-11-18T10:03:20;100952.56;;;-2.24;58.33
82784;BME280;72520;55.762;37.780;2023-11-18T10:06:25;100946.47;;;-2.26;57.37
82784;BME280;72520;55.762;37.780;2023-11-18T10:09:30;100949.06;;;-2.29;58.05
82784;BME280;72520;55.762;37.780;2023-11-18T10:12:40;100947.34;;;-2.25;57.96
82784;BME280;72520;55.762;37.780;2023-11-18T10:15:47;100932.63;;;-2.13;58.59
82784;BME280;72520;55.762;37.780;2023-11-18T10:18:53;100943.97;;;-1.97;57.27
82784;BME280;72520;55.762;37.780;2023-11-18T10:22:03;100942.28;;;-1.87;56.94
82784;BME280;72520;55.762;37.780;2023-11-18T10:25:06;100937.97;;;-1.78;57.32
82784;BME280;72520;55.762;37.780;2023-11-18T10:28:21;100944.91;;;-1.81;55.79
82784;BME280;72520;55.762;37.780;2023-11-18T10:31:24;100932.78;;;-1.67;55.68
82784;BME280;72520;55.762;37.780;2023-11-18T10:34:28;100931.88;;;-1.66;55.32
82784;BME280;72520;55.762;37.780;2023-11-18T10:37:32;100936.25;;;-1.65;54.69
82784;BME280;72520;55.762;37.780;2023-11-18T10:40:41;100933.59;;;-1.82;53.93
82784;BME280;72520;55.762;37.780;2023-11-18T10:43:45;100931.84;;;-1.87;54.55
82784;BME280;72520;55.762;37.780;2023-11-18T10:46:51;100937.94;;;-1.85;54.18
82784;BME280;72520;55.762;37.780;2023-11-18T10:49:55;100939.69;;;-1.77;53.71
82784;BME280;72520;55.762;37.780;2023-11-18T10:53:01;100937.91;;;-1.97;53.83
82784;BME280;72520;55.762;37.780;2023-11-18T10:56:05;100935.28;;;-1.93;54.67
82784;BME280;72520;55.762;37.780;2023-11-18T10:59:08;100931.81;;;-2.01;55.26
82784;BME280;72520;55.762;37.780;2023-11-18T11:02:21;100931.75;;;-2.07;54.98
82784;BME280;72520;55.762;37.780;2023-11-18T11:05:28;100932.63;;;-2.13;55.46
82784;BME280;72520;55.762;37.780;2023-11-18T11:08:35;100935.19;;;-2.26;55.32
82784;BME280;72520;55.762;37.780;2023-11-18T11:11:40;100932.56;;;-2.23;55.25
82784;BME280;72520;55.762;37.780;2023-11-18T11:14:55;100931.78;;;-2.09;54.95
82784;BME280;72520;55.762;37.780;2023-11-18T11:18:04;100929.16;;;-2.04;53.81
82784;BME280;72520;55.762;37.780;2023-11-18T11:21:14;100933.53;;;-2.04;53.59
82784;BME280;72520;55.762;37.780;2023-11-18T11:24:26;100930.88;;;-2.14;53.36
82784;BME280;72520;55.762;37.780;2023-11-18T11:27:44;100936.13;;;-2.08;54.99
82784;BME280;72520;55.762;37.780;2023-11-18T11:30:58;100933.47;;;-2.21;52.78
82784;BME280;72520;55.762;37.780;2023-11-18T11:34:06;100934.31;;;-2.25;52.91
82784;BME280;72520;55.762;37.780;2023-11-18T11:37:14;100935.25;;;-2.10;53.87
82784;BME280;72520;55.762;37.780;2023-11-18T11:40:20;100933.53;;;-2.03;53.72
82784;BME280;72520;55.762;37.780;2023-11-18T11:43:24;100931.81;;;-1.98;53.59
82784;BME280;72520;55.762;37.780;2023-11-18T11:46:29;100936.19;;;-1.83;54.23
82784;BME280;72520;55.762;37.780;2023-11-18T11:49:40;100941.41;;;-1.86;53.52
82784;BME280;72520;55.762;37.780;2023-11-18T11:52:51;100936.19;;;-1.86;52.42
82784;BME280;72520;55.762;37.780;2023-11-18T11:55:56;100937.91;;;-1.90;52.74
82784;BME280;72520;55.762;37.780;2023-11-18T11:59:07;100933.56;;;-1.92;52.93
82784;BME280;72520;55.762;37.780;2023-11-18T12:02:13;100925.72;;;-1.97;53.16
82784;BME280;72520;55.762;37.780;2023-11-18T12:05:17;100925.69;;;-2.03;53.72
82784;BME280;72520;55.762;37.780;2023-11-18T12:08:26;100930.94;;;-2.04;52.50
82784;BME280;72520;55.762;37.780;2023-11-18T12:11:35;100934.38;;;-2.12;52.56
82784;BME280;72520;55.762;37.780;2023-11-18T12:14:50;100927.44;;;-2.02;52.32
82784;BME280;72520;55.762;37.780;2023-11-18T12:18:09;100929.22;;;-1.95;52.58
82784;BME280;72520;55.762;37.780;2023-11-18T12:28:35;100931.81;;;-1.98;52.38
82784;BME280;72520;55.762;37.780;2023-11-18T12:31:39;100931.81;;;-1.90;52.73
82784;BME280;72520;55.762;37.780;2023-11-18T12:34:52;100935.31;;;-1.88;51.51
82784;BME280;72520;55.762;37.780;2023-11-18T12:38:26;100933.53;;;-2.03;51.70
82784;BME280;72520;55.762;37.780;2023-11-18T12:41:36;100930.06;;;-2.02;51.97
82784;BME280;72520;55.762;37.780;2023-11-18T12:44:59;100932.66;;;-2.03;52.41
82784;BME280;72520;55.762;37.780;2023-11-18T12:48:14;100934.31;;;-2.18;52.37
82784;BME280;72520;55.762;37.780;2023-11-18T12:51:17;100939.59;;;-2.12;51.90
82784;BME280;72520;55.762;37.780;2023-11-18T12:54:22;100931.72;;;-2.19;53.02
82784;BME280;72520;55.762;37.780;2023-11-18T12:57:29;100945.66;;;-2.19;51.65
82784;BME280;72520;55.762;37.780;2023-11-18T13:00:41;100936.94;;;-2.18;51.70
82784;BME280;72520;55.762;37.780;2023-11-18T13:03:46;100939.53;;;-2.25;51.56
82784;BME280;72520;55.762;37.780;2023-11-18T13:06:49;100936.94;;;-2.22;51.52
82784;BME280;72520;55.762;37.780;2023-11-18T13:09:52;100942.97;;;-2.28;52.31
82784;BME280;72520;55.762;37.780;2023-11-18T13:12:55;100949.06;;;-2.27;52.18
82784;BME280;72520;55.762;37.780;2023-11-18T13:16:00;100941.25;;;-2.29;53.63
82784;BME280;72520;55.762;37.780;2023-11-18T13:19:03;100947.31;;;-2.30;54.16
82784;BME280;72520;55.762;37.780;2023-11-18T13:22:07;100945.59;;;-2.29;53.14
82784;BME280;72520;55.762;37.780;2023-11-18T13:25:11;100949.06;;;-2.30;53.11
82784;BME280;72520;55.762;37.780;2023-11-18T13:28:15;100948.16;;;-2.37;54.54
82784;BME280;72520;55.762;37.780;2023-11-18T13:31:20;100941.16;;;-2.47;56.05
82784;BME280;72520;55.762;37.780;2023-11-18T13:34:22;100942.88;;;-2.50;55.13
82784;BME280;72520;55.762;37.780;2023-11-18T13:37:25;100947.22;;;-2.52;54.70
82784;BME280;72520;55.762;37.780;2023-11-18T13:40:42;100947.19;;;-2.54;54.93
82784;BME280;72520;55.762;37.780;2023-11-18T13:43:45;100954.97;;;-2.60;55.54
82784;BME280;72520;55.762;37.780;2023-11-18T13:46:50;100949.78;;;-2.59;55.91
82784;BME280;72520;55.762;37.780;2023-11-18T13:49:54;100948.94;;;-2.53;55.51
82784;BME280;72520;55.762;37.780;2023-11-18T13:52:59;100950.63;;;-2.66;55.82
82784;BME280;72520;55.762;37.780;2023-11-18T13:56:02;100950.53;;;-2.75;57.42
82784;BME280;72520;55.762;37.780;2023-11-18T13:59:05;100946.19;;;-2.77;57.79
82784;BME280;72520;55.762;37.780;2023-11-18T14:02:09;100953.09;;;-2.81;57.32
82784;BME280;72520;55.762;37.780;2023-11-18T14:05:15;100953.03;;;-2.88;57.93
82784;BME280;72520;55.762;37.780;2023-11-18T14:08:19;100948.69;;;-2.91;57.11
82784;BME280;72520;55.762;37.780;2023-11-18T14:11:21;100949.56;;;-2.90;58.14
82784;BME280;72520;55.762;37.780;2023-11-18T14:14:25;100949.56;;;-2.93;58.58
82784;BME280;72520;55.762;37.780;2023-11-18T14:17:30;100948.63;;;-3.03;59.88
82784;BME280;72520;55.762;37.780;2023-11-18T14:20:32;100956.38;;;-3.06;60.40
82784;BME280;72520;55.762;37.780;2023-11-18T14:23:36;100959.00;;;-3.04;59.69
82784;BME280;72520;55.762;37.780;2023-11-18T14:26:42;100958.09;;;-3.10;59.39
82784;BME280;72520;55.762;37.780;2023-11-18T14:29:45;100960.69;;;-3.11;60.44
82784;BME280;72520;55.762;37.780;2023-11-18T14:32:50;100951.91;;;-3.22;60.52
82784;BME280;72520;55.762;37.780;2023-11-18T14:35:52;100950.19;;;-3.22;60.50
82784;BME280;72520;55.762;37.780;2023-11-18T14:38:57;100952.78;;;-3.23;61.01
82784;BME280;72520;55.762;37.780;2023-11-18T14:42:00;100960.63;;;-3.19;60.48
82784;BME280;72520;55.762;37.780;2023-11-18T14:45:06;100958.00;;;-3.23;61.01
82784;BME280;72520;55.762;37.780;2023-11-18T14:48:11;100958.84;;;-3.24;61.42
82784;BME280;72520;55.762;37.780;2023-11-18T14:51:14;100955.31;;;-3.29;61.03
82784;BME280;72520;55.762;37.780;2023-11-18T14:54:17;100946.63;;;-3.34;60.94
82784;BME280;72520;55.762;37.780;2023-11-18T14:57:20;100956.16;;;-3.35;60.54
82784;BME280;72520;55.762;37.780;2023-11-18T15:00:22;100945.75;;;-3.32;60.88
82784;BME280;72520;55.762;37.780;2023-11-18T15:03:29;100948.31;;;-3.36;60.88
82784;BME280;72520;55.762;37.780;2023-11-18T15:06:33;100953.53;;;-3.38;60.90
82784;BME280;72520;55.762;37.780;2023-11-18T15:09:36;100956.03;;;-3.47;61.49
82784;BME280;72520;55.762;37.780;2023-11-18T15:12:42;100950.81;;;-3.47;62.20
82784;BME280;72520;55.762;37.780;2023-11-18T15:15:45;100956.81;;;-3.55;62.24
82784;BME280;72520;55.762;37.780;2023-11-18T15:18:50;100961.09;;;-3.62;62.56
82784;BME280;72520;55.762;37.780;2023-11-18T15:21:53;100956.75;;;-3.60;61.80
82784;BME280;72520;55.762;37.780;2023-11-18T15:24:56;100953.16;;;-3.73;63.00
82784;BME280;72520;55.762;37.780;2023-11-18T15:28:00;100958.31;;;-3.79;62.04
82784;BME280;72520;55.762;37.780;2023-11-18T15:31:03;100961.75;;;-3.81;62.69
82784;BME280;72520;55.762;37.780;2023-11-18T15:34:07;100969.53;;;-3.83;63.73
82784;BME280;72520;55.762;37.780;2023-11-18T15:37:10;100967.78;;;-3.84;62.85
82784;BME280;72520;55.762;37.780;2023-11-18T15:40:14;100963.50;;;-3.80;62.83
82784;BME280;72520;55.762;37.780;2023-11-18T15:43:21;100958.28;;;-3.80;62.98
82784;BME280;72520;55.762;37.780;2023-11-18T15:46:23;100955.66;;;-3.85;63.52
82784;BME280;72520;55.762;37.780;2023-11-18T15:49:28;100959.03;;;-3.90;63.88
82784;BME280;72520;55.762;37.780;2023-11-18T15:52:32;100956.44;;;-3.90;63.44
82784;BME280;72520;55.762;37.780;2023-11-18T15:55:36;100965.09;;;-3.93;64.42
82784;BME280;72520;55.762;37.780;2023-11-18T15:58:39;100953.31;;;0.33;57.28
82784;BME280;72520;55.762;37.780;2023-11-18T16:01:41;100946.72;;;-0.68;55.44